createdAt,value
2024-02-12T00:05:39.168Z,0.93
2024-02-12T00:06:40.920Z,1.17
2024-02-12T00:07:42.578Z,1.20
2024-02-12T00:08:44.291Z,0.93
2024-02-12T00:09:46.133Z,1.90
2024-02-12T00:10:48.651Z,1.70
2024-02-12T00:11:50.503Z,1.63
2024-02-12T00:12:52.065Z,1.60
2024-02-12T00:13:53.622Z,2.35
2024-02-12T00:14:55.209Z,1.52
2024-02-12T00:15:56.806Z,2.13
2024-02-12T00:16:58.395Z,2.45
2024-02-12T00:18:00.052Z,1.73
2024-02-12T00:19:01.661Z,1.90
2024-02-12T00:20:03.997Z,1.85
2024-02-12T00:21:05.743Z,0.80
2024-02-12T00:22:07.321Z,1.25
2024-02-12T00:23:08.947Z,1.30
2024-02-12T00:24:10.544Z,1.05
2024-02-12T00:25:12.129Z,0.60
2024-02-12T00:26:14.099Z,0.80
2024-02-12T00:27:15.686Z,1.52
2024-02-12T00:28:17.248Z,0.60
2024-02-12T00:29:18.955Z,0.80
2024-02-12T00:30:20.556Z,0.85
2024-02-12T00:31:22.432Z,0.52
2024-02-12T00:32:24.067Z,1.20
2024-02-12T00:33:25.670Z,0.80
2024-02-12T00:34:28.063Z,0.95
2024-02-12T00:35:29.783Z,1.55
2024-02-12T00:36:31.467Z,1.50
2024-02-12T00:37:33.084Z,1.60
2024-02-12T00:38:34.658Z,1.77
2024-02-12T00:39:36.285Z,1.13
2024-02-12T00:40:38.583Z,1.40
2024-02-12T00:41:40.421Z,3.67
2024-02-12T00:42:42.028Z,3.08
2024-02-12T00:43:44.163Z,1.65
2024-02-12T00:44:45.767Z,1.38
2024-02-12T00:45:47.307Z,0.90
2024-02-12T00:46:49.092Z,1.47
2024-02-12T00:47:51.156Z,1.70
2024-02-12T00:48:52.875Z,1.70
2024-02-12T00:49:54.492Z,1.00
2024-02-12T00:50:56.093Z,1.33
2024-02-12T00:51:57.721Z,0.85
2024-02-12T00:52:59.387Z,0.98
2024-02-12T00:54:01.023Z,1.30
2024-02-12T00:55:03.409Z,1.40
2024-02-12T00:56:05.205Z,2.28
2024-02-12T00:57:07.457Z,2.20
2024-02-12T00:58:09.017Z,1.08
2024-02-12T00:59:15.305Z,0.88
2024-02-12T01:00:17.177Z,0.55
2024-02-12T01:01:18.849Z,1.08
2024-02-12T01:02:20.490Z,0.77
2024-02-12T01:03:22.158Z,0.85
2024-02-12T01:04:23.783Z,0.60
2024-02-12T01:05:25.408Z,0.45
2024-02-12T01:06:27.029Z,0.80
2024-02-12T01:07:28.663Z,0.73
2024-02-12T01:08:30.315Z,1.77
2024-02-12T01:09:31.935Z,1.83
2024-02-12T01:10:33.588Z,2.45
2024-02-12T01:11:35.248Z,1.70
2024-02-12T01:12:37.001Z,1.23
2024-02-12T01:13:38.586Z,0.98
2024-02-12T01:14:40.187Z,1.48
2024-02-12T01:15:41.908Z,1.80
2024-02-12T01:16:43.451Z,1.67
2024-02-12T01:17:50.704Z,1.93
2024-02-12T01:18:55.478Z,0.73
2024-02-12T01:19:57.497Z,0.32
2024-02-12T01:20:59.152Z,0.73
2024-02-12T01:22:00.767Z,0.60
2024-02-12T01:23:02.375Z,0.73
2024-02-12T01:24:04.270Z,0.80
2024-02-12T01:25:05.849Z,0.77
2024-02-12T01:26:07.490Z,1.10
2024-02-12T01:27:09.098Z,0.90
2024-02-12T01:28:10.910Z,0.80
2024-02-12T01:29:12.543Z,0.60
2024-02-12T01:30:15.064Z,0.65
2024-02-12T01:31:17.396Z,0.30
2024-02-12T01:32:19.049Z,0.50
2024-02-12T01:33:20.821Z,0.63
2024-02-12T01:34:22.558Z,0.50
2024-02-12T01:35:24.329Z,0.40
2024-02-12T01:36:26.261Z,0.77
2024-02-12T01:37:27.857Z,0.60
2024-02-12T01:38:29.563Z,0.93
2024-02-12T01:39:31.253Z,0.45
2024-02-12T01:40:32.868Z,0.70
2024-02-12T01:41:34.804Z,0.77
2024-02-12T01:42:36.391Z,0.47
2024-02-12T01:43:37.986Z,0.68
2024-02-12T01:45:05.716Z,0.60
2024-02-12T01:46:07.370Z,0.30
2024-02-12T01:47:14.864Z,0.28
2024-02-12T01:48:22.677Z,0.55
2024-02-12T01:49:24.375Z,0.50
2024-02-12T01:50:26.174Z,0.52
2024-02-12T01:51:27.897Z,0.80
2024-02-12T01:52:29.765Z,0.30
2024-02-12T01:53:31.388Z,0.43
2024-02-12T01:54:33.054Z,1.92
2024-02-12T01:55:34.661Z,0.65
2024-02-12T01:56:36.306Z,0.85
2024-02-12T01:57:38.020Z,0.40
2024-02-12T01:58:43.506Z,0.30
2024-02-12T01:59:45.220Z,0.57
2024-02-12T02:00:49.915Z,0.52
2024-02-12T02:01:51.540Z,0.65
2024-02-12T02:02:53.209Z,0.80
2024-02-12T02:03:54.814Z,0.43
2024-02-12T02:04:56.573Z,0.70
2024-02-12T02:05:58.292Z,0.60
2024-02-12T02:06:59.906Z,0.90
2024-02-12T02:08:01.520Z,0.98
2024-02-12T02:09:03.320Z,1.98
2024-02-12T02:10:04.963Z,1.77
2024-02-12T02:11:11.079Z,0.88
2024-02-12T02:12:12.697Z,1.15
2024-02-12T02:13:14.251Z,1.10
2024-02-12T02:14:15.912Z,1.05
2024-02-12T02:15:17.800Z,0.98
2024-02-12T02:16:19.460Z,0.50
2024-02-12T02:17:21.076Z,0.70
2024-02-12T02:18:22.765Z,0.65
2024-02-12T02:19:24.567Z,0.60
2024-02-12T02:20:26.262Z,1.30
2024-02-12T02:21:27.880Z,1.30
2024-02-12T02:22:29.514Z,1.88
2024-02-12T02:23:31.149Z,2.50
2024-02-12T02:24:32.809Z,1.35
2024-02-12T02:25:34.445Z,1.48
2024-02-12T02:26:36.049Z,1.23
2024-02-12T02:27:37.742Z,1.90
2024-02-12T02:28:39.358Z,2.00
2024-02-12T02:29:40.989Z,1.83
2024-02-12T02:30:42.704Z,1.40
2024-02-12T02:31:44.282Z,1.55
2024-02-12T02:32:46.124Z,1.85
2024-02-12T02:33:47.960Z,0.82
2024-02-12T02:34:49.582Z,1.02
2024-02-12T02:35:51.218Z,1.77
2024-02-12T02:36:52.985Z,2.25
2024-02-12T02:37:54.673Z,1.23
2024-02-12T02:38:56.351Z,1.08
2024-02-12T02:39:58.059Z,1.85
2024-02-12T02:40:59.695Z,2.30
2024-02-12T02:42:01.383Z,1.45
2024-02-12T02:43:02.973Z,1.40
2024-02-12T02:44:04.669Z,1.30
2024-02-12T02:45:07.425Z,0.80
2024-02-12T02:46:09.041Z,1.15
2024-02-12T02:47:10.612Z,1.40
2024-02-12T02:49:31.118Z,1.02
2024-02-12T02:50:32.946Z,1.10
2024-02-12T03:33:58.443Z,0.88
2024-02-12T03:35:00.661Z,1.27
2024-02-12T03:36:02.278Z,1.50
2024-02-12T03:37:03.822Z,0.95
2024-02-12T03:38:05.388Z,1.10
2024-02-12T03:39:06.967Z,0.75
2024-02-12T03:40:08.890Z,1.45
2024-02-12T03:41:17.314Z,1.10
2024-02-12T03:42:18.870Z,1.50
2024-02-12T04:27:14.287Z,1.80
2024-02-12T04:28:15.825Z,1.63
2024-02-12T04:29:17.354Z,2.10
2024-02-12T04:30:18.938Z,1.85
2024-02-12T04:31:20.475Z,1.42
2024-02-12T04:32:22.110Z,1.73
2024-02-12T04:33:23.762Z,2.00
2024-02-12T04:34:25.382Z,2.13
2024-02-12T04:35:27.034Z,2.03
2024-02-12T04:36:28.609Z,2.38
2024-02-12T04:37:30.402Z,3.30
2024-02-12T04:38:32.039Z,7.50
2024-02-12T04:39:33.903Z,5.57
2024-02-12T04:40:35.438Z,4.68
2024-02-12T04:41:40.834Z,4.72
2024-02-12T04:42:42.408Z,3.90
2024-02-12T04:43:44.057Z,2.13
2024-02-12T04:44:45.673Z,1.70
2024-02-12T04:46:48.156Z,2.92
2024-02-12T04:47:52.806Z,6.18
2024-02-12T04:48:54.420Z,5.82
2024-02-12T04:49:56.066Z,5.72
2024-02-12T04:50:57.587Z,8.20
2024-02-12T04:51:59.111Z,7.13
2024-02-12T04:53:00.674Z,4.53
2024-02-12T04:54:02.444Z,2.55
2024-02-12T04:55:04.021Z,4.97
2024-02-12T04:56:07.233Z,5.88
2024-02-12T04:57:08.757Z,6.45
2024-02-12T04:58:10.272Z,6.18
2024-02-12T04:59:18.166Z,5.40
2024-02-12T05:00:19.835Z,4.78
2024-02-12T05:01:21.361Z,4.13
2024-02-12T05:02:23.016Z,3.65
2024-02-12T05:03:24.674Z,3.45
2024-02-12T05:04:26.299Z,4.03
2024-02-12T05:05:27.877Z,3.30
2024-02-12T05:06:29.472Z,3.30
2024-02-12T05:07:31.075Z,4.38
2024-02-12T05:08:32.849Z,3.50
2024-02-12T05:09:34.362Z,3.83
2024-02-12T05:10:35.849Z,3.08
2024-02-12T05:11:37.440Z,2.40
2024-02-12T05:12:38.912Z,2.75
2024-02-12T05:13:40.399Z,2.42
2024-02-12T05:14:42.056Z,2.50
2024-02-12T05:15:43.559Z,2.30
2024-02-12T05:16:45.123Z,1.95
2024-02-12T05:17:46.764Z,2.90
2024-02-12T05:18:48.531Z,3.53
2024-02-12T05:19:50.412Z,2.65
2024-02-12T05:20:51.886Z,2.05
2024-02-12T05:21:53.407Z,1.60
2024-02-12T05:22:54.958Z,1.33
2024-02-12T05:23:56.498Z,1.63
2024-02-12T05:24:57.982Z,1.75
2024-02-12T05:25:59.963Z,2.07
2024-02-12T05:27:02.257Z,2.15
2024-02-12T05:28:04.460Z,2.30
2024-02-12T05:29:06.152Z,2.53
2024-02-12T05:30:07.884Z,2.47
2024-02-12T05:31:09.416Z,2.83
2024-02-12T05:32:10.987Z,3.47
2024-02-12T05:33:12.604Z,2.70
2024-02-12T05:34:14.340Z,2.70
2024-02-12T05:35:15.900Z,2.78
2024-02-12T05:36:17.577Z,2.73
2024-02-12T05:37:19.070Z,3.08
2024-02-12T05:38:20.639Z,3.15
2024-02-12T05:39:22.463Z,2.88
2024-02-12T05:40:24.028Z,2.90
2024-02-12T05:42:40.854Z,3.13
2024-02-12T05:43:43.291Z,4.00
2024-02-12T05:44:44.964Z,4.28
2024-02-12T05:45:46.588Z,3.97
2024-02-12T05:46:48.135Z,2.97
2024-02-12T05:47:49.792Z,4.10
2024-02-12T05:48:51.350Z,2.50
2024-02-12T05:49:53.048Z,3.58
2024-02-12T05:50:54.573Z,3.05
2024-02-12T05:51:56.333Z,2.67
2024-02-12T05:52:57.946Z,3.35
2024-02-12T05:53:59.609Z,7.88
2024-02-12T05:55:01.132Z,8.55
2024-02-12T05:56:02.790Z,6.35
2024-02-12T05:57:04.756Z,5.20
2024-02-12T05:58:08.253Z,3.72
2024-02-12T05:59:09.842Z,5.38
2024-02-12T06:00:11.727Z,6.32
2024-02-12T06:01:13.433Z,6.65
2024-02-12T06:02:15.066Z,6.85
2024-02-12T06:03:16.737Z,4.72
2024-02-12T06:04:18.265Z,6.03
2024-02-12T06:05:19.955Z,4.50
2024-02-12T06:06:22.530Z,3.47
2024-02-12T06:07:24.306Z,4.07
2024-02-12T06:08:26.180Z,3.72
2024-02-12T06:09:28.505Z,4.20
2024-02-12T06:10:30.085Z,4.28
2024-02-12T06:11:31.734Z,4.82
2024-02-12T06:12:33.494Z,6.75
2024-02-12T06:14:38.781Z,5.28
2024-02-12T06:15:40.348Z,5.35
2024-02-12T06:16:41.893Z,4.35
2024-02-12T06:17:43.504Z,4.40
2024-02-12T06:18:45.096Z,3.65
2024-02-12T06:19:47.163Z,3.60
2024-02-12T06:20:49.466Z,2.50
2024-02-12T06:21:50.999Z,2.45
2024-02-12T06:22:52.551Z,1.92
2024-02-12T06:23:54.135Z,2.10
2024-02-12T06:24:55.676Z,2.30
2024-02-12T06:25:57.217Z,1.90
2024-02-12T06:26:59.257Z,2.40
2024-02-12T06:28:00.925Z,2.50
2024-02-12T06:29:02.533Z,2.60
2024-02-12T06:30:04.246Z,2.50
2024-02-12T06:31:05.761Z,2.88
2024-02-12T06:32:07.326Z,2.53
2024-02-12T06:33:09.068Z,3.10
2024-02-12T06:34:11.566Z,2.85
2024-02-12T06:35:13.154Z,3.75
2024-02-12T06:36:14.782Z,2.83
2024-02-12T06:37:16.438Z,2.33
2024-02-12T06:38:18.041Z,2.80
2024-02-12T06:39:19.542Z,2.75
2024-02-12T06:40:21.083Z,3.47
2024-02-12T06:41:22.664Z,3.15
2024-02-12T06:42:24.243Z,2.92
2024-02-12T06:43:25.751Z,2.92
2024-02-12T06:44:27.331Z,3.30
2024-02-12T06:45:28.878Z,2.90
2024-02-12T06:46:30.576Z,3.00
2024-02-12T06:47:32.198Z,3.50
2024-02-12T06:48:33.931Z,3.40
2024-02-12T06:49:35.568Z,3.80
2024-02-12T06:50:37.177Z,4.03
2024-02-12T06:51:41.778Z,4.30
2024-02-12T06:52:43.337Z,4.20
2024-02-12T06:53:44.850Z,3.58
2024-02-12T06:54:46.378Z,3.90
2024-02-12T06:55:47.884Z,3.63
2024-02-12T06:56:49.452Z,4.00
2024-02-12T06:57:50.967Z,3.55
2024-02-12T06:58:52.504Z,3.90
2024-02-12T06:59:54.032Z,3.97
2024-02-12T07:00:55.767Z,3.30
2024-02-12T07:01:57.414Z,3.78
2024-02-12T07:02:58.966Z,4.18
2024-02-12T07:04:00.701Z,4.32
2024-02-12T07:05:02.656Z,4.57
2024-02-12T07:06:04.442Z,3.20
2024-02-12T07:07:06.001Z,3.08
2024-02-12T07:08:07.521Z,2.88
2024-02-12T07:09:09.110Z,3.47
2024-02-12T07:10:10.676Z,4.65
2024-02-12T07:11:15.645Z,4.88
2024-02-12T07:12:17.449Z,3.80
2024-02-12T07:13:18.997Z,3.60
2024-02-12T07:14:21.081Z,3.47
2024-02-12T07:15:22.690Z,3.50
2024-02-12T07:16:24.197Z,3.10
2024-02-12T07:17:25.787Z,3.38
2024-02-12T07:18:27.358Z,4.07
2024-02-12T07:19:28.948Z,4.23
2024-02-12T07:20:30.602Z,5.75
2024-02-12T07:21:32.140Z,3.30
2024-02-12T07:22:33.791Z,3.03
2024-02-12T07:23:35.296Z,2.90
2024-02-12T07:24:36.873Z,2.45
2024-02-12T07:25:38.445Z,2.90
2024-02-12T07:26:40.085Z,2.45
2024-02-12T07:27:41.749Z,3.00
2024-02-12T07:28:43.221Z,2.75
2024-02-12T07:29:44.844Z,2.90
2024-02-12T07:30:46.445Z,2.28
2024-02-12T07:31:47.974Z,2.33
2024-02-12T07:32:49.726Z,3.08
2024-02-12T07:33:51.471Z,2.85
2024-02-12T07:34:53.165Z,2.60
2024-02-12T07:35:54.693Z,2.60
2024-02-12T07:36:56.218Z,2.63
2024-02-12T07:37:58.484Z,2.70
2024-02-12T07:39:00.025Z,2.70
2024-02-12T07:40:02.131Z,2.50
2024-02-12T07:41:03.917Z,2.78
2024-02-12T07:42:07.353Z,3.13
2024-02-12T07:43:08.958Z,2.30
2024-02-12T07:44:10.508Z,2.83
2024-02-12T07:45:12.373Z,3.08
2024-02-12T07:46:14.936Z,2.38
2024-02-12T07:47:16.620Z,2.97
2024-02-12T07:48:18.350Z,3.28
2024-02-12T07:49:20.290Z,2.60
2024-02-12T07:50:21.928Z,3.97
2024-02-12T07:51:26.182Z,5.72
2024-02-12T07:52:27.931Z,6.88
2024-02-12T07:53:29.501Z,5.25
2024-02-12T07:54:31.338Z,3.40
2024-02-12T07:55:32.997Z,4.20
2024-02-12T07:56:34.530Z,4.43
2024-02-12T07:57:36.074Z,3.42
2024-02-12T07:58:37.636Z,4.00
2024-02-12T07:59:39.330Z,3.97
2024-02-12T08:00:40.935Z,3.20
2024-02-12T08:01:42.510Z,2.83
2024-02-12T08:02:44.208Z,2.22
2024-02-12T08:03:46.686Z,2.58
2024-02-12T08:04:48.447Z,2.63
2024-02-12T08:05:50.827Z,3.83
2024-02-12T08:06:52.452Z,3.67
2024-02-12T08:08:02.767Z,4.13
2024-02-12T08:09:05.546Z,3.25
2024-02-12T08:10:07.429Z,3.70
2024-02-12T08:11:09.023Z,3.20
2024-02-12T08:12:12.380Z,3.95
2024-02-12T08:13:13.913Z,3.90
2024-02-12T08:14:15.667Z,4.45
2024-02-12T08:15:17.282Z,4.00
2024-02-12T08:16:18.865Z,3.80
2024-02-12T08:17:28.186Z,3.13
2024-02-12T08:18:30.766Z,3.33
2024-02-12T08:19:32.685Z,2.22
2024-02-12T08:20:34.651Z,2.20
2024-02-12T08:21:36.391Z,1.97
2024-02-12T08:22:37.941Z,2.30
2024-02-12T08:23:40.470Z,2.33
2024-02-12T08:24:42.369Z,2.53
2024-02-12T08:25:43.939Z,1.58
2024-02-12T08:26:45.787Z,3.33
2024-02-12T08:27:47.328Z,3.50
2024-02-12T08:28:48.812Z,2.63
2024-02-12T08:29:50.429Z,1.65
2024-02-12T08:30:52.358Z,1.80
2024-02-12T08:31:53.868Z,1.90
2024-02-12T08:32:55.610Z,2.92
2024-02-12T08:33:59.122Z,2.67
2024-02-12T08:35:02.019Z,2.88
2024-02-12T08:36:04.959Z,2.33
2024-02-12T08:37:06.456Z,1.80
2024-02-12T08:38:08.034Z,1.27
2024-02-12T08:39:10.573Z,1.65
2024-02-12T08:40:13.355Z,1.77
2024-02-12T08:41:25.182Z,2.13
2024-02-12T08:42:26.778Z,1.80
2024-02-12T08:43:28.310Z,1.83
2024-02-12T08:44:29.923Z,1.60
2024-02-12T08:45:31.965Z,1.65
2024-02-12T08:46:33.593Z,1.40
2024-02-12T08:47:35.204Z,1.40
2024-02-12T08:48:36.867Z,2.42
2024-02-12T08:49:38.472Z,2.47
2024-02-12T08:50:40.129Z,2.42
2024-02-12T08:51:41.684Z,1.75
2024-02-12T08:52:43.293Z,1.50
2024-02-12T08:53:44.901Z,2.08
2024-02-12T08:54:46.619Z,2.10
2024-02-12T08:55:48.154Z,1.80
2024-02-12T08:56:50.024Z,1.23
2024-02-12T08:57:51.612Z,1.02
2024-02-12T08:58:53.191Z,1.73
2024-02-12T08:59:54.739Z,1.60
2024-02-12T09:00:56.354Z,1.25
2024-02-12T09:01:58.021Z,1.20
2024-02-12T09:02:59.559Z,1.87
2024-02-12T09:04:01.071Z,1.92
2024-02-12T09:05:03.055Z,1.75
2024-02-12T09:06:04.741Z,1.42
2024-02-12T09:07:06.414Z,2.05
2024-02-12T09:08:08.076Z,2.13
2024-02-12T09:09:09.767Z,3.10
2024-02-12T09:10:11.405Z,2.22
2024-02-12T09:11:14.258Z,2.67
2024-02-12T09:12:15.979Z,2.75
2024-02-12T09:13:17.512Z,3.40
2024-02-12T09:14:19.203Z,3.60
2024-02-12T09:15:21.197Z,3.47
2024-02-12T09:16:22.933Z,2.90
2024-02-12T09:17:25.466Z,4.00
2024-02-12T09:18:27.964Z,3.45
2024-02-12T09:19:29.571Z,4.35
2024-02-12T09:20:31.154Z,4.03
2024-02-12T09:21:33.039Z,4.05
2024-02-12T09:22:35.312Z,6.28
2024-02-12T09:23:36.857Z,6.23
2024-02-12T09:24:38.412Z,4.97
2024-02-12T09:25:39.879Z,4.15
2024-02-12T09:26:41.525Z,4.40
2024-02-12T09:27:43.006Z,4.47
2024-02-12T09:28:44.572Z,4.20
2024-02-12T09:29:46.176Z,4.15
2024-02-12T09:30:48.347Z,2.92
2024-02-12T09:31:49.848Z,2.83
2024-02-12T09:32:51.515Z,2.05
2024-02-12T09:33:53.275Z,2.60
2024-02-12T09:34:54.804Z,1.80
2024-02-12T09:35:56.528Z,2.17
2024-02-12T09:36:58.109Z,2.15
2024-02-12T09:38:00.137Z,2.40
2024-02-12T09:39:01.908Z,2.70
2024-02-12T09:40:04.320Z,3.00
2024-02-12T09:41:06.002Z,2.75
2024-02-12T09:42:07.549Z,2.20
2024-02-12T09:43:09.516Z,2.88
2024-02-12T09:44:12.611Z,2.87
2024-02-12T09:45:15.843Z,2.47
2024-02-12T09:46:18.060Z,1.80
2024-02-12T09:47:19.927Z,2.00
2024-02-12T09:48:21.806Z,2.60
2024-02-12T09:49:23.833Z,2.83
2024-02-12T09:50:26.869Z,2.30
2024-02-12T09:51:29.777Z,1.30
2024-02-12T09:52:31.718Z,1.70
2024-02-12T09:53:33.824Z,3.17
2024-02-12T09:54:37.013Z,2.27
2024-02-12T09:55:38.504Z,0.98
2024-02-12T09:56:40.007Z,1.02
2024-02-12T09:57:41.653Z,1.20
2024-02-12T09:58:43.182Z,1.40
2024-02-12T09:59:44.722Z,0.70
2024-02-12T10:00:46.628Z,1.10
2024-02-12T10:01:48.182Z,2.67
2024-02-12T10:02:53.281Z,1.75
2024-02-12T10:03:55.295Z,1.27
2024-02-12T10:04:56.986Z,1.53
2024-02-12T10:05:58.624Z,1.17
2024-02-12T10:07:00.196Z,1.15
2024-02-12T10:51:51.525Z,2.17
2024-02-12T10:52:53.762Z,1.65
2024-02-12T10:53:56.239Z,1.88
2024-02-12T10:54:57.995Z,2.75
2024-02-12T10:55:59.711Z,2.67
2024-02-12T10:57:01.677Z,1.90
2024-02-12T10:58:03.340Z,1.40
2024-02-12T10:59:04.957Z,2.85
2024-02-12T11:00:06.829Z,2.90
2024-02-12T11:01:14.968Z,1.40
2024-02-12T11:02:16.680Z,1.50
2024-02-12T11:03:18.529Z,0.88
2024-02-12T11:04:25.696Z,0.98
2024-02-12T11:05:28.091Z,0.88
2024-02-12T11:06:40.125Z,1.30
2024-02-12T11:07:43.288Z,1.48
2024-02-12T11:08:48.395Z,1.15
2024-02-12T11:10:02.181Z,1.00
2024-02-12T11:11:03.755Z,1.38
2024-02-12T11:12:09.913Z,0.93
2024-02-12T11:13:15.897Z,1.27
2024-02-12T11:14:18.091Z,1.00
2024-02-12T11:15:20.355Z,1.55
2024-02-12T11:16:21.929Z,1.00
2024-02-12T11:17:23.800Z,1.48
2024-02-12T11:18:25.700Z,1.55
2024-02-12T11:19:27.276Z,1.48
2024-02-12T11:20:28.934Z,1.48
2024-02-12T11:21:30.974Z,1.42
2024-02-12T11:22:33.058Z,0.57
2024-02-12T11:23:34.734Z,1.03
2024-02-12T11:24:36.721Z,1.30
2024-02-12T11:25:45.789Z,1.90
2024-02-12T11:26:56.031Z,1.40
2024-02-12T11:28:01.219Z,1.42
2024-02-12T11:29:04.460Z,1.20
2024-02-12T11:30:06.834Z,1.33
2024-02-12T11:31:08.603Z,1.00
2024-02-12T11:32:10.434Z,1.30
2024-02-12T11:33:12.277Z,1.00
2024-02-12T11:34:14.535Z,0.93
2024-02-12T11:35:17.032Z,0.80
2024-02-12T11:36:18.557Z,0.63
2024-02-12T11:37:20.120Z,1.40
2024-02-12T11:38:21.774Z,0.95
2024-02-12T11:39:23.423Z,1.10
2024-02-12T11:40:25.023Z,0.80
2024-02-12T11:41:26.693Z,2.00
2024-02-12T11:42:28.335Z,1.10
2024-02-12T11:43:32.190Z,1.30
2024-02-12T11:44:33.904Z,1.57
2024-02-12T11:45:36.554Z,1.10
2024-02-12T11:46:38.090Z,1.13
2024-02-12T11:47:39.717Z,1.20
2024-02-12T11:48:41.370Z,0.57
2024-02-12T11:49:46.541Z,1.20
2024-02-12T11:50:48.059Z,1.60
2024-02-12T11:51:49.634Z,0.98
2024-02-12T11:52:51.667Z,1.55
2024-02-12T11:53:54.221Z,1.40
2024-02-12T11:54:56.234Z,1.03
2024-02-12T11:55:58.033Z,0.77
2024-02-12T11:56:59.625Z,2.67
2024-02-12T11:58:01.307Z,1.20
2024-02-12T11:59:04.988Z,1.10
2024-02-12T12:00:08.557Z,1.23
2024-02-12T12:01:10.062Z,1.67
2024-02-12T12:02:11.661Z,0.98
2024-02-12T12:03:13.437Z,1.40
2024-02-12T12:04:15.057Z,0.70
2024-02-12T12:05:16.792Z,0.87
2024-02-12T12:06:18.477Z,0.80
2024-02-12T12:07:20.051Z,0.57
2024-02-12T12:08:25.196Z,1.10
2024-02-12T12:09:26.819Z,0.93
2024-02-12T12:10:29.066Z,1.38
2024-02-12T12:11:30.692Z,0.82
2024-02-12T12:12:32.238Z,0.95
2024-02-12T12:13:33.825Z,2.30
2024-02-12T12:14:36.549Z,1.13
2024-02-12T12:15:38.332Z,1.30
2024-02-12T12:17:26.762Z,2.50
2024-02-12T12:18:01.776Z,1.23
2024-02-12T12:19:03.790Z,1.13
2024-02-12T12:20:08.499Z,1.58
2024-02-12T12:21:10.252Z,1.13
2024-02-12T12:22:20.980Z,1.77
2024-02-12T12:23:22.652Z,2.13
2024-02-12T12:24:24.217Z,4.68
2024-02-12T12:25:25.712Z,1.20
2024-02-12T12:26:27.271Z,0.80
2024-02-12T12:27:28.900Z,0.98
2024-02-12T12:28:30.466Z,1.95
2024-02-12T12:29:32.001Z,0.73
2024-02-12T12:30:33.624Z,1.00
2024-02-12T12:31:35.190Z,0.52
2024-02-12T12:32:36.847Z,0.90
2024-02-12T12:33:38.849Z,0.80
2024-02-12T12:34:40.663Z,0.50
2024-02-12T12:35:42.380Z,0.50
2024-02-12T12:36:44.019Z,0.80
2024-02-12T12:37:46.048Z,1.00
2024-02-12T12:38:47.656Z,0.98
2024-02-12T12:39:49.588Z,0.80
2024-02-12T12:40:51.112Z,1.00
2024-02-12T12:41:52.654Z,1.13
2024-02-12T12:42:54.213Z,1.02
2024-02-12T12:43:55.912Z,1.15
2024-02-12T12:44:57.476Z,2.22
2024-02-12T12:45:59.078Z,1.10
2024-02-12T12:47:00.673Z,1.80
2024-02-12T12:48:02.850Z,1.20
2024-02-12T12:49:04.593Z,1.65
2024-02-12T12:50:06.531Z,1.00
2024-02-12T12:51:08.233Z,1.08
2024-02-12T12:52:09.775Z,1.25
2024-02-12T12:53:11.418Z,1.20
2024-02-12T12:54:13.145Z,0.95
2024-02-12T12:55:15.581Z,1.48
2024-02-12T12:56:17.456Z,1.00
2024-02-12T12:57:19.048Z,0.90
2024-02-12T12:58:20.738Z,0.85
2024-02-12T12:59:22.424Z,1.10
2024-02-12T13:00:24.127Z,1.20
2024-02-12T13:01:25.732Z,1.38
2024-02-12T13:02:27.258Z,0.80
2024-02-12T13:03:28.905Z,1.95
2024-02-12T13:04:30.581Z,0.90
2024-02-12T13:05:32.128Z,2.03
2024-02-12T13:06:33.977Z,1.00
2024-02-12T13:07:35.664Z,1.50
2024-02-12T13:08:37.204Z,1.75
2024-02-12T13:09:38.910Z,2.33
2024-02-12T13:10:41.479Z,2.05
2024-02-12T13:11:43.651Z,2.33
2024-02-12T13:12:45.285Z,3.38
2024-02-12T13:13:46.784Z,1.25
2024-02-12T13:14:48.552Z,1.10
2024-02-12T13:15:50.136Z,1.85
2024-02-12T13:16:51.796Z,1.98
2024-02-12T13:17:53.419Z,1.70
2024-02-12T13:18:55.144Z,1.02
2024-02-12T13:19:56.873Z,1.27
2024-02-12T13:20:58.534Z,1.30
2024-02-12T13:22:00.073Z,1.50
2024-02-12T13:23:01.727Z,0.82
2024-02-12T13:24:03.297Z,0.93
2024-02-12T13:25:07.889Z,0.88
2024-02-12T13:26:10.455Z,1.00
2024-02-12T13:27:12.121Z,1.20
2024-02-12T13:28:13.666Z,0.90
2024-02-12T13:29:15.284Z,1.17
2024-02-12T13:30:16.841Z,1.20
2024-02-12T13:31:18.518Z,0.93
2024-02-12T13:32:20.464Z,1.52
2024-02-12T13:33:22.107Z,1.35
2024-02-12T13:34:23.929Z,1.08
2024-02-12T13:35:25.806Z,1.40
2024-02-12T13:36:27.387Z,1.52
2024-02-12T13:37:28.937Z,7.72
2024-02-12T13:38:30.554Z,5.23
2024-02-12T13:39:32.075Z,3.47
2024-02-12T13:40:33.753Z,2.08
2024-02-12T13:41:35.321Z,2.92
2024-02-12T13:42:36.925Z,3.08
2024-02-12T13:43:38.420Z,2.35
2024-02-12T13:44:40.130Z,2.47
2024-02-12T13:45:41.859Z,1.38
2024-02-12T13:46:43.409Z,1.40
2024-02-12T13:47:44.955Z,1.30
2024-02-12T13:48:46.772Z,2.07
2024-02-12T13:49:48.440Z,11.73
2024-02-12T13:50:50.529Z,6.18
2024-02-12T13:51:52.173Z,3.95
2024-02-12T13:52:53.689Z,4.28
2024-02-12T13:53:55.238Z,1.98
2024-02-12T13:54:56.845Z,0.85
2024-02-12T13:55:58.445Z,0.98
2024-02-12T13:56:59.939Z,1.05
2024-02-12T13:58:01.523Z,1.20
2024-02-12T13:59:03.212Z,1.47
2024-02-12T14:00:26.905Z,1.20
2024-02-12T14:01:40.574Z,1.00
2024-02-12T14:02:47.094Z,1.45
2024-02-12T14:03:48.798Z,1.50
2024-02-12T14:04:50.480Z,2.63
2024-02-12T14:05:52.305Z,4.05
2024-02-12T14:06:54.102Z,4.32
2024-02-12T14:07:55.656Z,4.72
2024-02-12T14:08:57.121Z,4.13
2024-02-12T14:09:58.870Z,3.53
2024-02-12T14:11:00.515Z,3.45
2024-02-12T14:12:02.194Z,15.43
2024-02-12T14:13:04.110Z,6.50
2024-02-12T14:14:05.655Z,4.00
2024-02-12T14:15:13.566Z,3.10
2024-02-12T14:16:17.769Z,2.20
2024-02-12T14:17:19.423Z,2.10
2024-02-12T14:18:21.102Z,2.35
2024-02-12T14:19:22.676Z,3.20
2024-02-12T14:20:24.257Z,3.80
2024-02-12T14:21:25.897Z,4.57
2024-02-12T14:22:27.488Z,16.83
2024-02-12T14:23:29.052Z,6.05
2024-02-12T14:24:30.677Z,4.28
2024-02-12T14:25:32.211Z,3.28
2024-02-12T14:26:33.708Z,4.32
2024-02-12T14:27:35.265Z,8.73
2024-02-12T14:28:36.762Z,5.63
2024-02-12T14:29:38.346Z,3.88
2024-02-12T14:30:39.858Z,2.93
2024-02-12T14:32:34.447Z,2.75
2024-02-12T14:33:04.044Z,2.35
2024-02-12T14:34:05.921Z,3.15
2024-02-12T14:35:08.439Z,2.25
2024-02-12T14:36:10.196Z,3.13
2024-02-12T14:37:13.381Z,2.40
2024-02-12T14:38:16.148Z,2.13
2024-02-12T14:39:17.706Z,6.38
2024-02-12T14:40:19.465Z,4.22
2024-02-12T14:41:21.034Z,3.60
2024-02-12T14:42:22.582Z,4.30
2024-02-12T14:43:24.496Z,3.50
2024-02-12T14:44:26.088Z,3.25
2024-02-12T14:45:27.744Z,3.08
2024-02-12T14:46:29.304Z,3.38
2024-02-12T14:47:31.377Z,2.85
2024-02-12T14:48:33.160Z,6.63
2024-02-12T14:49:36.009Z,5.00
2024-02-12T14:50:38.407Z,5.10
2024-02-12T14:51:39.938Z,5.90
2024-02-12T14:52:41.478Z,4.35
2024-02-12T14:53:43.105Z,5.57
2024-02-12T14:54:44.690Z,5.35
2024-02-12T14:55:46.227Z,5.80
2024-02-12T14:56:47.777Z,5.47
2024-02-12T14:57:49.336Z,4.18
2024-02-12T14:58:50.919Z,3.90
2024-02-12T14:59:52.439Z,3.17
2024-02-12T15:00:53.983Z,1.98
2024-02-12T15:01:55.722Z,1.70
2024-02-12T15:02:57.225Z,1.80
2024-02-12T15:03:58.928Z,2.22
2024-02-12T15:05:00.626Z,2.03
2024-02-12T15:06:02.354Z,10.90
2024-02-12T15:07:04.090Z,8.20
2024-02-12T15:08:05.971Z,10.30
2024-02-12T15:09:07.535Z,8.23
2024-02-12T15:10:09.208Z,11.25
2024-02-12T15:11:11.778Z,7.68
2024-02-12T15:12:13.917Z,11.00
2024-02-12T15:13:15.736Z,4.18
2024-02-12T15:14:17.339Z,5.03
2024-02-12T15:15:19.414Z,5.60
2024-02-12T15:16:20.939Z,6.07
2024-02-12T15:17:22.557Z,5.85
2024-02-12T15:18:24.212Z,5.93
2024-02-12T15:19:25.905Z,5.93
2024-02-12T15:20:31.418Z,7.40
2024-02-12T15:21:33.463Z,5.82
2024-02-12T15:22:34.989Z,5.40
2024-02-12T15:23:36.552Z,5.53
2024-02-12T15:24:38.682Z,5.93
2024-02-12T15:25:40.228Z,4.40
2024-02-12T15:26:41.899Z,4.72
2024-02-12T15:27:43.440Z,5.13
2024-02-12T15:28:44.973Z,7.68
2024-02-12T15:29:46.521Z,22.85
2024-02-12T15:30:49.817Z,16.13
2024-02-12T15:31:51.460Z,7.43
2024-02-12T15:32:53.105Z,5.37
2024-02-12T15:33:54.825Z,6.75
2024-02-12T15:34:56.421Z,7.18
2024-02-12T15:35:58.446Z,6.80
2024-02-12T15:37:00.133Z,6.93
2024-02-12T15:38:01.999Z,8.75
2024-02-12T15:39:03.664Z,12.48
2024-02-12T15:40:05.418Z,18.80
2024-02-12T15:41:07.022Z,12.75
2024-02-12T15:42:08.595Z,9.00
2024-02-12T15:43:10.184Z,5.40
2024-02-12T15:44:12.383Z,5.45
2024-02-12T15:45:14.169Z,4.97
2024-02-12T15:46:15.883Z,4.10
2024-02-12T15:47:17.426Z,4.03
2024-02-12T15:48:19.966Z,4.05
2024-02-12T15:49:21.714Z,5.40
2024-02-12T15:50:23.346Z,3.88
2024-02-12T15:51:24.873Z,5.93
2024-02-12T15:52:26.411Z,6.78
2024-02-12T15:53:28.004Z,11.67
2024-02-12T15:54:29.524Z,10.77
2024-02-12T15:55:31.061Z,16.63
2024-02-12T15:56:32.855Z,16.80
2024-02-12T15:57:34.399Z,16.27
2024-02-12T15:58:36.444Z,10.88
2024-02-12T15:59:38.049Z,8.75
2024-02-12T16:00:39.615Z,9.15
2024-02-12T16:01:41.108Z,7.63
2024-02-12T16:02:43.373Z,8.13
2024-02-12T16:03:45.280Z,8.10
2024-02-12T16:04:46.840Z,9.30
2024-02-12T16:05:57.339Z,9.43